createdAt,value
2018-05-21T00:00:20.000Z,993.65
2018-05-21T00:01:30.010Z,993.64
2018-05-21T00:02:40.102Z,993.69
2018-05-21T00:03:50.112Z,993.65
2018-05-21T00:04:59.965Z,993.67
2018-05-21T00:06:09.717Z,993.68
2018-05-21T00:07:19.541Z,993.68
2018-05-21T00:08:29.024Z,993.66
2018-05-21T00:09:39.059Z,993.68
2018-05-21T00:10:49.067Z,993.72
2018-05-21T00:11:59.071Z,993.7
2018-05-21T00:13:08.816Z,993.69
2018-05-21T00:14:18.830Z,993.68
2018-05-21T00:15:28.843Z,993.68
2018-05-21T00:16:38.399Z,993.7
2018-05-21T00:17:48.304Z,993.7
2018-05-21T00:18:58.319Z,993.74
2018-05-21T00:20:08.059Z,993.68
2018-05-21T00:21:17.805Z,993.75
2018-05-21T00:22:27.015Z,993.76
2018-05-21T00:23:36.762Z,993.77
2018-05-21T00:24:46.780Z,993.8
2018-05-21T00:25:56.525Z,993.76
2018-05-21T00:27:06.269Z,993.76
2018-05-21T00:28:16.014Z,993.83
2018-05-21T00:29:25.756Z,993.78
2018-05-21T00:30:35.520Z,993.84
2018-05-21T00:31:44.992Z,993.83
2018-05-21T00:32:55.008Z,993.84
2018-05-21T00:34:05.027Z,993.83
2018-05-21T00:35:15.042Z,993.84
2018-05-21T00:36:25.052Z,993.85
2018-05-21T00:37:35.058Z,993.91
2018-05-21T00:38:45.077Z,993.86
2018-05-21T00:39:54.818Z,993.91
2018-05-21T00:41:03.810Z,993.89
2018-05-21T00:42:13.824Z,993.85
2018-05-21T00:43:23.841Z,993.88
2018-05-21T00:44:33.588Z,993.91
2018-05-21T00:45:43.604Z,993.88
2018-05-21T00:46:53.620Z,993.86
2018-05-21T00:48:03.630Z,993.84
2018-05-21T00:49:13.644Z,993.85
2018-05-21T00:50:23.413Z,993.82
2018-05-21T00:51:33.253Z,993.89
2018-05-21T00:52:42.731Z,993.9
2018-05-21T00:53:52.753Z,993.93
2018-05-21T00:55:02.500Z,993.9
2018-05-21T00:56:12.247Z,993.9
2018-05-21T00:57:22.301Z,993.87
2018-05-21T00:58:31.557Z,993.84
2018-05-21T00:59:41.297Z,993.87
2018-05-21T01:00:51.041Z,993.85
2018-05-21T01:02:01.053Z,993.84
2018-05-21T01:03:10.529Z,993.88
2018-05-21T01:04:20.377Z,993.89
2018-05-21T01:05:30.145Z,993.86
2018-05-21T01:06:40.245Z,993.86
2018-05-21T01:07:50.254Z,993.83
2018-05-21T01:09:00.014Z,993.89
2018-05-21T01:10:08.956Z,993.88
2018-05-21T01:11:18.704Z,993.89
2018-05-21T01:12:28.447Z,993.92
2018-05-21T01:13:38.204Z,993.89
2018-05-21T01:14:47.957Z,993.89
2018-05-21T01:15:57.975Z,993.91
2018-05-21T01:17:07.734Z,993.88
2018-05-21T01:18:17.763Z,993.89
2018-05-21T01:19:27.234Z,993.91
2018-05-21T01:20:36.983Z,993.87
2018-05-21T01:21:46.993Z,993.87
2018-05-21T01:22:57.000Z,993.86
2018-05-21T01:24:06.745Z,993.87
2018-05-21T01:25:16.768Z,993.91
2018-05-21T01:26:26.790Z,993.91
2018-05-21T01:27:36.632Z,993.91
2018-05-21T01:28:46.650Z,993.91
2018-05-21T01:29:56.663Z,993.95
2018-05-21T01:31:06.150Z,994.02
2018-05-21T01:32:16.156Z,994.02
2018-05-21T01:33:26.167Z,994.01
2018-05-21T01:34:35.909Z,994.01
2018-05-21T01:35:45.655Z,994.01
2018-05-21T01:36:55.154Z,994.04
2018-05-21T01:38:04.631Z,994.02
2018-05-21T01:39:14.372Z,993.98
2018-05-21T01:40:24.120Z,993.99
2018-05-21T01:41:33.329Z,993.99
2018-05-21T01:42:43.339Z,993.98
2018-05-21T01:43:53.354Z,994.04
2018-05-21T01:45:03.099Z,994.03
2018-05-21T01:46:12.574Z,994.02
2018-05-21T01:47:22.583Z,994.03
2018-05-21T01:48:32.328Z,994.01
2018-05-21T01:49:42.350Z,993.98
2018-05-21T01:50:52.095Z,994.04
2018-05-21T01:52:02.132Z,993.99
2018-05-21T01:53:11.615Z,993.98
2018-05-21T01:54:21.365Z,994.05
2018-05-21T01:55:31.375Z,994.05
2018-05-21T01:56:41.390Z,994.06
2018-05-21T01:57:51.406Z,994.03
2018-05-21T01:59:01.146Z,994.08
2018-05-21T02:00:10.625Z,994.08
2018-05-21T02:01:20.654Z,994.06
2018-05-21T02:02:30.188Z,993.99
2018-05-21T02:03:40.197Z,994
2018-05-21T02:04:49.950Z,994.07
2018-05-21T02:05:59.967Z,994.05
2018-05-21T02:07:09.711Z,994.06
2018-05-21T02:08:19.786Z,994.06
2018-05-21T02:09:29.615Z,994.04
2018-05-21T02:10:39.087Z,994.1
2018-05-21T02:11:48.829Z,994.04
2018-05-21T02:12:58.847Z,994.09
2018-05-21T02:14:08.322Z,994.12
2018-05-21T02:15:18.336Z,994.15
2018-05-21T02:16:28.345Z,994.19
2018-05-21T02:17:37.825Z,994.17
2018-05-21T02:18:47.568Z,994.19
2018-05-21T02:19:57.591Z,994.19
2018-05-21T02:21:07.672Z,994.17
2018-05-21T02:22:17.414Z,994.18
2018-05-21T02:23:27.438Z,994.17
2018-05-21T02:24:36.645Z,994.2
2018-05-21T02:25:46.652Z,994.21
2018-05-21T02:26:56.666Z,994.17
2018-05-21T02:28:06.943Z,994.19
2018-05-21T02:29:16.690Z,994.19
2018-05-21T02:30:25.908Z,994.15
2018-05-21T02:31:35.944Z,994.21
2018-05-21T02:32:45.691Z,994.26
2018-05-21T02:33:55.706Z,994.22
2018-05-21T02:35:05.457Z,994.18
2018-05-21T02:36:15.474Z,994.21
2018-05-21T02:37:25.497Z,994.17
2018-05-21T02:38:35.537Z,994.2
2018-05-21T02:39:45.290Z,994.22
2018-05-21T02:40:55.048Z,994.13
2018-05-21T02:42:04.809Z,994.18
2018-05-21T02:43:14.820Z,994.17
2018-05-21T02:44:24.841Z,994.17
2018-05-21T02:45:34.849Z,994.26
2018-05-21T02:46:44.593Z,994.27
2018-05-21T02:47:54.337Z,994.2
2018-05-21T02:49:04.087Z,994.23
2018-05-21T02:50:13.581Z,994.24
2018-05-21T02:51:22.791Z,994.22
2018-05-21T02:52:32.800Z,994.24
2018-05-21T02:53:42.817Z,994.27
2018-05-21T02:54:52.559Z,994.26
2018-05-21T02:56:02.572Z,994.24
2018-05-21T02:57:12.590Z,994.3
2018-05-21T02:58:22.600Z,994.28
2018-05-21T02:59:32.075Z,994.3
2018-05-21T03:03:23.020Z,994.33
2018-05-21T03:04:32.767Z,994.33
2018-05-21T03:05:42.515Z,994.35
2018-05-21T03:06:52.532Z,994.3
2018-05-21T03:08:02.273Z,994.29
2018-05-21T03:09:12.019Z,994.36
2018-05-21T03:10:21.763Z,994.37
2018-05-21T03:11:31.777Z,994.38
2018-05-21T03:12:41.523Z,994.4
2018-05-21T03:13:51.265Z,994.36
2018-05-21T03:15:01.281Z,994.35
2018-05-21T03:16:11.032Z,994.37
2018-05-21T03:17:20.771Z,994.35
2018-05-21T03:18:30.792Z,994.37
2018-05-21T03:19:40.799Z,994.42
2018-05-21T03:20:50.274Z,994.44
2018-05-21T03:22:00.288Z,994.41
2018-05-21T03:23:10.305Z,994.47
2018-05-21T03:24:20.337Z,994.48
2018-05-21T03:25:29.823Z,994.48
2018-05-21T03:26:39.573Z,994.48
2018-05-21T03:27:49.587Z,994.53
2018-05-21T03:28:59.597Z,994.51
2018-05-21T03:30:09.606Z,994.55
2018-05-21T03:31:19.624Z,994.56
2018-05-21T03:32:29.367Z,994.53
2018-05-21T03:33:39.377Z,994.54
2018-05-21T03:34:49.212Z,994.57
2018-05-21T03:35:58.688Z,994.58
2018-05-21T03:37:08.178Z,994.59
2018-05-21T03:38:18.242Z,994.59
2018-05-21T03:39:28.252Z,994.58
2018-05-21T03:40:37.992Z,994.57
2018-05-21T03:41:47.734Z,994.57
2018-05-21T03:42:57.747Z,994.57
2018-05-21T03:44:07.487Z,994.59
2018-05-21T03:45:17.315Z,994.61
2018-05-21T03:46:27.330Z,994.62
2018-05-21T03:47:37.345Z,994.64
2018-05-21T03:48:47.362Z,994.63
2018-05-21T03:49:57.370Z,994.65
2018-05-21T03:51:07.113Z,994.66
2018-05-21T03:52:16.599Z,994.69
2018-05-21T03:53:26.611Z,994.74
2018-05-21T03:54:36.354Z,994.67
2018-05-21T03:55:46.369Z,994.74
2018-05-21T03:56:56.141Z,994.67
2018-05-21T03:58:05.883Z,994.68
2018-05-21T03:59:15.357Z,994.74
2018-05-21T04:00:25.373Z,994.74
2018-05-21T04:01:35.387Z,994.77
2018-05-21T04:02:45.127Z,994.75
2018-05-21T04:03:55.138Z,994.78
2018-05-21T04:05:04.622Z,994.79
2018-05-21T04:06:13.837Z,994.81
2018-05-21T04:07:23.586Z,994.81
2018-05-21T04:08:33.340Z,994.8
2018-05-21T04:09:43.358Z,994.8
2018-05-21T04:10:53.102Z,994.81
2018-05-21T04:12:02.842Z,994.79
2018-05-21T04:13:12.583Z,994.79
2018-05-21T04:14:22.325Z,994.83
2018-05-21T04:15:32.339Z,994.79
2018-05-21T04:16:42.085Z,994.75
2018-05-21T04:17:52.094Z,994.78
2018-05-21T04:19:01.955Z,994.81
2018-05-21T04:20:11.442Z,994.91
2018-05-21T04:21:21.462Z,994.85
2018-05-21T04:22:31.494Z,994.81
2018-05-21T04:23:41.508Z,994.85
2018-05-21T04:24:51.625Z,994.83
2018-05-21T04:26:01.642Z,994.82
2018-05-21T04:27:11.384Z,994.84
2018-05-21T04:28:21.390Z,994.84
2018-05-21T04:29:30.914Z,994.88
2018-05-21T04:30:41.007Z,994.85
2018-05-21T04:31:51.017Z,994.91
2018-05-21T04:33:00.763Z,994.84
2018-05-21T04:34:10.848Z,994.84
2018-05-21T04:35:20.332Z,994.85
2018-05-21T04:36:30.146Z,994.82
2018-05-21T04:37:40.288Z,994.84
2018-05-21T04:38:49.768Z,994.86
2018-05-21T04:39:59.513Z,994.88
2018-05-21T04:41:09.526Z,994.87
2018-05-21T04:42:19.272Z,994.86
2018-05-21T04:43:29.015Z,994.86
2018-05-21T04:44:38.762Z,994.88
2018-05-21T04:45:48.769Z,994.89
2018-05-21T04:46:58.515Z,994.86
2018-05-21T04:48:07.999Z,994.88
2018-05-21T04:49:18.011Z,994.88
2018-05-21T04:50:28.020Z,994.84
2018-05-21T04:51:36.961Z,994.85
2018-05-21T04:52:47.007Z,994.86
2018-05-21T04:53:56.755Z,994.91
2018-05-21T04:55:05.979Z,994.92
2018-05-21T04:56:15.987Z,994.92
2018-05-21T04:57:25.742Z,994.99
2018-05-21T04:58:35.840Z,994.98
2018-05-21T04:59:45.323Z,995.03
2018-05-21T05:00:55.343Z,995.03
2018-05-21T05:02:05.095Z,995.06
2018-05-21T05:03:14.301Z,995.08
2018-05-21T05:04:24.044Z,995.06
2018-05-21T05:05:33.577Z,995.05
2018-05-21T05:06:43.592Z,995.08
2018-05-21T05:07:53.665Z,995.12
2018-05-21T05:09:03.152Z,995.11
2018-05-21T05:10:13.174Z,995.13
2018-05-21T05:11:22.654Z,995.12
2018-05-21T05:12:32.664Z,995.12
2018-05-21T05:13:42.405Z,995.16
2018-05-21T05:14:52.204Z,995.12
2018-05-21T05:16:01.679Z,995.18
2018-05-21T05:17:11.431Z,995.18
2018-05-21T05:18:21.445Z,995.14
2018-05-21T05:19:30.925Z,995.13
2018-05-21T05:20:40.675Z,995.16
2018-05-21T05:21:50.420Z,995.21
2018-05-21T05:23:00.437Z,995.14
2018-05-21T05:24:10.180Z,995.11
2018-05-21T05:25:19.929Z,995.1
2018-05-21T05:26:29.674Z,995.1
2018-05-21T05:27:39.884Z,995.06
2018-05-21T05:28:49.899Z,995.14
2018-05-21T05:29:59.921Z,995.11
2018-05-21T05:31:09.669Z,995.1
2018-05-21T05:32:19.691Z,995.13
2018-05-21T05:33:29.705Z,995.07
2018-05-21T05:34:39.719Z,995.08
2018-05-21T05:35:49.195Z,995.11
2018-05-21T05:36:59.431Z,995.1
2018-05-21T05:38:09.451Z,995.09
2018-05-21T05:39:19.471Z,995.08
2018-05-21T05:40:29.482Z,995.08
2018-05-21T05:41:39.549Z,995.06
2018-05-21T05:42:49.558Z,995.08
2018-05-21T05:43:59.567Z,995.1
2018-05-21T05:45:09.314Z,995.12
2018-05-21T05:46:19.064Z,995.05
2018-05-21T05:47:28.816Z,995.1
2018-05-21T05:48:38.568Z,995.08
2018-05-21T05:49:48.488Z,995.07
2018-05-21T05:50:58.503Z,995.12
2018-05-21T05:52:08.270Z,995.1
2018-05-21T05:53:18.278Z,995.07
2018-05-21T05:54:28.026Z,995.12
2018-05-21T05:55:38.048Z,995.13
2018-05-21T05:56:48.060Z,995.06
2018-05-21T05:57:57.542Z,995.05
2018-05-21T05:59:07.556Z,995.04
2018-05-21T06:00:17.311Z,995.08
2018-05-21T06:01:27.326Z,995.1
2018-05-21T06:02:37.344Z,995.01
2018-05-21T06:03:47.094Z,995.05
2018-05-21T06:04:56.844Z,995.03
2018-05-21T06:06:06.591Z,995.02
2018-05-21T06:07:16.074Z,994.98
2018-05-21T06:08:26.095Z,995.01
2018-05-21T06:09:35.840Z,995.05
2018-05-21T06:10:45.589Z,995.03
2018-05-21T06:11:55.608Z,995.02
2018-05-21T06:13:05.649Z,995.1
2018-05-21T06:14:15.138Z,995.03
2018-05-21T06:15:24.627Z,995.1
2018-05-21T06:16:34.644Z,995.07
2018-05-21T06:17:44.659Z,995.1
2018-05-21T06:18:54.779Z,995.1
2018-05-21T06:20:04.796Z,995.1
2018-05-21T06:21:14.809Z,995.06
2018-05-21T06:22:23.755Z,995.04
2018-05-21T06:23:33.498Z,995
2018-05-21T06:24:42.983Z,995.02
2018-05-21T06:25:52.745Z,995.04
2018-05-21T06:27:02.478Z,995.05
2018-05-21T06:28:11.957Z,995.01
2018-05-21T06:29:21.970Z,995.03
2018-05-21T06:30:31.448Z,995.05
2018-05-21T06:31:41.192Z,995.03
2018-05-21T06:32:50.943Z,995.08
2018-05-21T06:34:01.014Z,995.04
2018-05-21T06:35:10.559Z,995.04
2018-05-21T06:36:20.571Z,995.05
2018-05-21T06:37:30.588Z,995.08
2018-05-21T06:38:40.333Z,995.1
2018-05-21T06:39:50.360Z,995.07
2018-05-21T06:40:59.591Z,995.09
2018-05-21T06:42:10.038Z,995.11
2018-05-21T06:43:19.784Z,995.07
2018-05-21T06:44:29.538Z,995.1
2018-05-21T06:45:39.284Z,995.1
2018-05-21T06:46:48.768Z,995.13
2018-05-21T06:47:58.515Z,995.13
2018-05-21T06:49:07.727Z,995.14
2018-05-21T06:50:17.754Z,995.2
2018-05-21T06:51:27.499Z,995.15
2018-05-21T06:52:37.258Z,995.11
2018-05-21T06:53:46.735Z,995.15
2018-05-21T06:54:56.756Z,995.19
2018-05-21T06:56:06.565Z,995.18
2018-05-21T06:57:16.054Z,995.25
2018-05-21T06:58:25.532Z,995.25
2018-05-21T06:59:35.013Z,995.24
2018-05-21T07:00:45.164Z,995.18
2018-05-21T07:01:55.196Z,995.23
2018-05-21T07:03:04.948Z,995.24
2018-05-21T07:04:14.960Z,995.27
2018-05-21T07:05:24.976Z,995.27
2018-05-21T07:06:34.991Z,995.3
2018-05-21T07:07:45.005Z,995.32
2018-05-21T07:08:55.145Z,995.29
2018-05-21T07:10:04.893Z,995.29
2018-05-21T07:11:14.646Z,995.28
2018-05-21T07:12:24.667Z,995.29
2018-05-21T07:13:34.691Z,995.23
2018-05-21T07:14:44.711Z,995.28
2018-05-21T07:15:54.722Z,995.29
2018-05-21T07:17:04.475Z,995.33
2018-05-21T07:18:14.538Z,995.29
2018-05-21T07:19:24.685Z,995.25
2018-05-21T07:20:33.629Z,995.25
2018-05-21T07:21:43.371Z,995.25
2018-05-21T07:22:53.118Z,995.2
2018-05-21T07:24:03.138Z,995.2
2018-05-21T07:25:13.148Z,995.29
2018-05-21T07:26:22.898Z,995.28
2018-05-21T07:27:32.918Z,995.25
2018-05-21T07:28:42.674Z,995.24
2018-05-21T07:29:52.424Z,995.22
2018-05-21T07:31:02.172Z,995.22
2018-05-21T07:32:11.927Z,995.26
2018-05-21T07:33:21.939Z,995.21
2018-05-21T07:34:31.958Z,995.17
2018-05-21T07:35:41.704Z,995.18
2018-05-21T07:36:51.553Z,995.19
2018-05-21T07:38:00.765Z,995.17
2018-05-21T07:39:10.526Z,995.17
2018-05-21T07:40:20.562Z,995.16
2018-05-21T07:41:30.303Z,995.13
2018-05-21T07:42:40.322Z,995.14
2018-05-21T07:43:50.067Z,995.14
2018-05-21T07:45:00.077Z,995.21
2018-05-21T07:46:10.107Z,995.16
2018-05-21T07:47:19.857Z,995.2
2018-05-21T07:48:29.962Z,995.14
2018-05-21T07:49:39.708Z,995.17
2018-05-21T07:50:49.728Z,995.17
2018-05-21T07:51:59.475Z,995.13
2018-05-21T07:53:09.494Z,995.16
2018-05-21T07:54:19.508Z,995.15
2018-05-21T07:55:29.267Z,995.06
2018-05-21T07:56:38.750Z,995.16
2018-05-21T07:57:48.761Z,995.17
2018-05-21T07:58:58.779Z,995.21
2018-05-21T08:00:08.531Z,995.19
2018-05-21T08:01:18.279Z,995.19
2018-05-21T08:02:28.025Z,995.19
2018-05-21T08:03:37.776Z,995.23
2018-05-21T08:04:47.799Z,995.17
2018-05-21T08:05:57.539Z,995.16
2018-05-21T08:07:07.018Z,995.18
2018-05-21T08:08:17.040Z,995.13
2018-05-21T08:09:26.257Z,995.13
2018-05-21T08:10:36.284Z,995.14
2018-05-21T08:11:46.307Z,995.12
2018-05-21T08:12:56.327Z,995.18
2018-05-21T08:14:06.351Z,995.18
2018-05-21T08:15:15.831Z,995.16
2018-05-21T08:16:25.844Z,995.07
2018-05-21T08:17:35.331Z,995.08
2018-05-21T08:18:45.076Z,995.11
2018-05-21T08:19:55.098Z,995.11
2018-05-21T08:21:05.124Z,995.13
2018-05-21T08:22:14.963Z,995.11
2018-05-21T08:23:25.225Z,995.09
2018-05-21T08:24:34.981Z,995.14
2018-05-21T08:25:44.998Z,995.16
2018-05-21T08:26:55.057Z,995.12
2018-05-21T08:28:04.542Z,995.09
2018-05-21T08:29:14.570Z,995.04
2018-05-21T08:30:24.032Z,995.07
2018-05-21T08:31:33.526Z,995.07
2018-05-21T08:32:43.542Z,995.05
2018-05-21T08:33:53.290Z,995.03
2018-05-21T08:35:03.324Z,995.04
2018-05-21T08:36:13.145Z,995.05
2018-05-21T08:37:22.906Z,995.02
2018-05-21T08:38:32.652Z,995.05
2018-05-21T08:39:42.664Z,995.09
2018-05-21T08:40:52.681Z,995.08
2018-05-21T08:42:02.698Z,995.09
2018-05-21T08:43:12.183Z,995.05
2018-05-21T08:44:21.930Z,995.09
2018-05-21T08:45:31.946Z,995.07
2018-05-21T08:46:41.689Z,995.03
2018-05-21T08:47:51.438Z,995.05
2018-05-21T08:49:01.186Z,995.08
2018-05-21T08:50:11.281Z,995.02
2018-05-21T08:51:21.024Z,995.04
2018-05-21T08:52:30.776Z,995.06
2018-05-21T08:53:40.523Z,995.05
2018-05-21T08:54:50.264Z,995.04
2018-05-21T08:56:00.029Z,995.02
2018-05-21T08:57:10.045Z,994.99
2018-05-21T08:58:19.529Z,995.09
2018-05-21T08:59:29.284Z,995.14
2018-05-21T09:00:39.304Z,995.11
2018-05-21T09:01:48.783Z,995.09
2018-05-21T09:02:58.532Z,995.19
2018-05-21T09:04:08.333Z,995.11
2018-05-21T09:05:18.093Z,995.14
2018-05-21T09:06:28.119Z,995.11
2018-05-21T09:07:38.153Z,995.09
2018-05-21T09:08:48.180Z,995.12
2018-05-21T09:09:58.279Z,995.14
2018-05-21T09:11:08.743Z,995.11
2018-05-21T09:12:18.610Z,995.06
2018-05-21T09:13:28.626Z,995.01
2018-05-21T09:14:38.452Z,994.97
2018-05-21T09:15:48.468Z,994.94
2018-05-21T09:16:58.482Z,994.95
2018-05-21T09:18:08.041Z,994.95
2018-05-21T09:19:17.787Z,995.02
2018-05-21T09:20:27.809Z,994.94
2018-05-21T09:21:37.287Z,994.97
2018-05-21T09:22:47.039Z,994.97
2018-05-21T09:23:56.791Z,994.9
2018-05-21T09:25:06.544Z,994.96
2018-05-21T09:26:16.555Z,994.96
2018-05-21T09:27:26.313Z,994.95
2018-05-21T09:28:36.353Z,994.93
2018-05-21T09:29:46.099Z,994.92
2018-05-21T09:30:56.121Z,994.93
2018-05-21T09:32:05.874Z,994.89
2018-05-21T09:33:16.045Z,994.89
2018-05-21T09:34:26.073Z,994.87
2018-05-21T09:35:35.828Z,994.85
2018-05-21T09:36:45.584Z,994.86
2018-05-21T09:37:55.339Z,994.81
2018-05-21T09:39:05.088Z,994.8
2018-05-21T09:40:14.844Z,994.85
2018-05-21T09:41:24.320Z,994.9
2018-05-21T09:42:34.329Z,994.85
2018-05-21T09:43:44.086Z,994.84
2018-05-21T09:44:53.841Z,994.89
2018-05-21T09:46:03.586Z,994.83
2018-05-21T09:47:13.354Z,994.82
2018-05-21T09:48:23.109Z,994.79
2018-05-21T09:49:33.129Z,994.77
2018-05-21T09:50:43.138Z,994.81
2018-05-21T09:51:52.618Z,994.82
2018-05-21T09:53:02.388Z,994.78
2018-05-21T09:54:11.868Z,994.76
2018-05-21T09:55:21.890Z,994.82
2018-05-21T09:56:31.648Z,994.75
2018-05-21T09:57:41.677Z,994.78
2018-05-21T09:58:51.427Z,994.73
2018-05-21T10:00:01.446Z,994.72
2018-05-21T10:01:11.494Z,994.69
2018-05-21T10:02:20.973Z,994.7
2018-05-21T10:03:30.991Z,994.72
2018-05-21T10:04:41.010Z,994.65
2018-05-21T10:05:51.030Z,994.66
2018-05-21T10:07:01.047Z,994.66
2018-05-21T10:08:10.794Z,994.65
2018-05-21T10:09:20.011Z,994.62
2018-05-21T10:10:29.753Z,994.6
2018-05-21T10:11:39.321Z,994.65
2018-05-21T10:12:49.072Z,994.72
2018-05-21T10:13:58.828Z,994.67
2018-05-21T10:15:08.312Z,994.64
2018-05-21T10:16:18.345Z,994.59
2018-05-21T10:17:28.359Z,994.58
2018-05-21T10:18:38.382Z,994.57
2018-05-21T10:19:48.475Z,994.59
2018-05-21T10:20:57.956Z,994.62
2018-05-21T10:22:07.706Z,994.58
2018-05-21T10:23:17.460Z,994.56
2018-05-21T10:24:26.943Z,994.56
2018-05-21T10:25:36.422Z,994.52
2018-05-21T10:26:46.175Z,994.55
2018-05-21T10:27:56.189Z,994.45
2018-05-21T10:29:06.217Z,994.47
2018-05-21T10:30:16.246Z,994.43
2018-05-21T10:31:26.258Z,994.47
2018-05-21T10:32:36.271Z,994.5
2018-05-21T10:33:46.045Z,994.55
2018-05-21T10:34:55.797Z,994.52
2018-05-21T10:36:05.570Z,994.51
2018-05-21T10:37:15.598Z,994.51
2018-05-21T10:38:26.005Z,994.51
2018-05-21T10:39:35.757Z,994.48
2018-05-21T10:40:45.505Z,994.49
2018-05-21T10:41:55.254Z,994.47
2018-05-21T10:43:05.010Z,994.53
2018-05-21T10:44:15.040Z,994.44
2018-05-21T10:45:24.788Z,994.37
2018-05-21T10:46:34.567Z,994.38
2018-05-21T10:47:44.324Z,994.34
2018-05-21T10:48:53.815Z,994.39
2018-05-21T10:50:03.566Z,994.36
2018-05-21T10:51:13.314Z,994.49
2018-05-21T10:52:23.625Z,994.41
2018-05-21T10:53:33.648Z,994.36
2018-05-21T10:54:43.399Z,994.38
2018-05-21T10:55:53.428Z,994.44
2018-05-21T10:57:02.922Z,994.43
2018-05-21T10:58:12.684Z,994.45
2018-05-21T10:59:22.432Z,994.39
2018-05-21T11:00:32.324Z,994.4
2018-05-21T11:01:42.201Z,994.38
2018-05-21T11:02:52.852Z,994.41
2018-05-21T11:04:02.337Z,994.39
2018-05-21T11:05:12.099Z,994.46
2018-05-21T11:06:21.862Z,994.43
2018-05-21T11:07:31.965Z,994.47
2018-05-21T11:08:41.994Z,994.46
2018-05-21T11:09:51.749Z,994.44
2018-05-21T11:11:01.235Z,994.41
2018-05-21T11:12:10.469Z,994.37
2018-05-21T11:13:20.590Z,994.33
2018-05-21T11:14:30.335Z,994.33
2018-05-21T11:15:40.355Z,994.31
2018-05-21T11:16:50.385Z,994.32
2018-05-21T11:18:00.169Z,994.32
2018-05-21T11:19:09.937Z,994.32
2018-05-21T11:20:19.968Z,994.28
2018-05-21T11:21:29.727Z,994.23
2018-05-21T11:22:39.745Z,994.29
2018-05-21T11:23:49.279Z,994.31
2018-05-21T11:24:59.298Z,994.3
2018-05-21T11:26:08.792Z,994.31
2018-05-21T11:27:18.821Z,994.34
2018-05-21T11:28:28.837Z,994.36
2018-05-21T11:29:38.587Z,994.4
2018-05-21T11:30:48.335Z,994.42
2018-05-21T11:31:57.861Z,994.46
2018-05-21T11:33:07.597Z,994.47
2018-05-21T11:34:17.619Z,994.47
2018-05-21T11:35:26.835Z,994.44
2018-05-21T11:36:36.862Z,994.36
2018-05-21T11:37:46.883Z,994.39
2018-05-21T11:38:56.917Z,994.34
2018-05-21T11:40:06.409Z,994.34
2018-05-21T11:41:16.516Z,994.38
2018-05-21T11:42:26.279Z,994.43
2018-05-21T11:43:36.305Z,994.37
2018-05-21T11:44:46.324Z,994.37
2018-05-21T11:45:56.347Z,994.33
2018-05-21T11:47:06.375Z,994.27
2018-05-21T11:48:15.867Z,994.19
2018-05-21T11:49:25.624Z,994.27
2018-05-21T11:50:35.433Z,994.36
2018-05-21T11:51:45.761Z,994.26
2018-05-21T11:52:55.617Z,994.16
2018-05-21T11:54:05.384Z,994.29
2018-05-21T11:55:15.409Z,994.24
2018-05-21T11:56:25.439Z,994.34
2018-05-21T11:57:35.468Z,994.28
2018-05-21T11:58:45.504Z,994.29
2018-05-21T11:59:55.583Z,994.31
2018-05-21T12:01:05.623Z,994.16
2018-05-21T12:02:15.661Z,994.21
2018-05-21T12:03:25.727Z,994.27
2018-05-21T12:04:35.488Z,994.2
2018-05-21T12:05:45.512Z,994.25
2018-05-21T12:06:55.538Z,994.15
2018-05-21T12:08:05.671Z,994.16
2018-05-21T12:09:15.161Z,993.96
2018-05-21T12:10:24.932Z,994.1
2018-05-21T12:11:34.961Z,994.15
2018-05-21T12:12:45.085Z,994.15
2018-05-21T12:13:54.577Z,994.19
2018-05-21T12:15:04.350Z,994.18
2018-05-21T12:16:13.841Z,994.06
2018-05-21T12:17:23.863Z,994.12
2018-05-21T12:18:33.890Z,994.07
2018-05-21T12:19:43.918Z,994.08
2018-05-21T12:20:53.944Z,994.08
2018-05-21T12:22:03.707Z,994.04
2018-05-21T12:23:13.197Z,994.08
2018-05-21T12:24:23.227Z,994.03
2018-05-21T12:25:32.990Z,993.97
2018-05-21T12:26:42.756Z,993.96
2018-05-21T12:27:52.785Z,994.03
2018-05-21T12:29:02.551Z,994.06
2018-05-21T12:30:12.314Z,994
2018-05-21T12:31:22.342Z,994.05
2018-05-21T12:32:32.369Z,994.11
2018-05-21T12:33:42.235Z,994.02
2018-05-21T12:34:51.728Z,993.96
2018-05-21T12:36:01.495Z,994.05
2018-05-21T12:37:10.724Z,994.12
2018-05-21T12:38:20.755Z,993.93
2018-05-21T12:39:30.514Z,993.93
2018-05-21T12:40:40.273Z,993.9
2018-05-21T12:41:50.306Z,994.04
2018-05-21T12:43:00.332Z,993.95
2018-05-21T12:44:09.558Z,993.82
2018-05-21T12:45:19.589Z,993.78
2018-05-21T12:46:29.354Z,993.89
2018-05-21T12:47:39.119Z,993.91
2018-05-21T12:48:48.354Z,993.8
2018-05-21T12:49:58.380Z,993.78
2018-05-21T12:51:08.414Z,994
2018-05-21T12:52:18.174Z,993.84
2018-05-21T12:53:28.201Z,993.79
2018-05-21T12:54:38.258Z,993.9
2018-05-21T12:55:48.496Z,993.83
2018-05-21T12:56:58.269Z,993.92
2018-05-21T12:58:08.030Z,993.76
2018-05-21T12:59:18.077Z,993.74
2018-05-21T13:00:27.601Z,993.85
2018-05-21T13:01:37.627Z,993.86
2018-05-21T13:02:47.714Z,993.87
2018-05-21T13:03:57.755Z,993.88
2018-05-21T13:05:07.818Z,993.82
2018-05-21T13:06:17.475Z,993.78
2018-05-21T13:07:26.967Z,993.82
2018-05-21T13:08:36.993Z,993.83
2018-05-21T13:09:47.025Z,993.85
2018-05-21T13:10:56.795Z,993.79
2018-05-21T13:12:06.294Z,993.89
2018-05-21T13:13:16.325Z,993.92
2018-05-21T13:14:26.355Z,993.83
2018-05-21T13:15:36.127Z,993.94
2018-05-21T13:16:45.894Z,993.92
2018-05-21T13:17:55.922Z,993.88
2018-05-21T13:19:05.952Z,993.87
2018-05-21T13:20:15.713Z,993.9
2018-05-21T13:21:24.940Z,993.94
2018-05-21T13:22:34.976Z,993.89
2018-05-21T13:23:45.007Z,993.72
2018-05-21T13:24:54.771Z,993.85
2018-05-21T13:26:04.534Z,993.83
2018-05-21T13:27:14.554Z,993.87
2018-05-21T13:28:24.320Z,993.66
2018-05-21T13:29:34.079Z,993.8
2018-05-21T13:30:43.842Z,993.74
2018-05-21T13:31:53.608Z,993.81
2018-05-21T13:33:03.665Z,993.7
2018-05-21T13:34:13.436Z,993.78
2018-05-21T13:35:23.465Z,993.66
2018-05-21T13:36:33.303Z,993.74
2018-05-21T13:37:42.796Z,993.7
2018-05-21T13:38:52.564Z,993.75
2018-05-21T13:40:02.328Z,993.68
2018-05-21T13:41:11.830Z,993.69
2018-05-21T13:42:21.859Z,993.78
2018-05-21T13:43:31.884Z,993.69
2018-05-21T13:44:41.382Z,993.65
2018-05-21T13:45:51.492Z,993.69
2018-05-21T13:47:01.527Z,993.83
2018-05-21T13:48:11.563Z,993.7
2018-05-21T13:49:21.590Z,993.66
2018-05-21T13:50:31.623Z,993.72
2018-05-21T13:51:41.387Z,993.73
2018-05-21T13:52:51.419Z,993.61
2018-05-21T13:54:01.179Z,993.6
2018-05-21T13:55:11.239Z,993.49
2018-05-21T13:56:21.267Z,993.38
2018-05-21T13:57:31.289Z,993.45
2018-05-21T13:58:41.321Z,993.43
2018-05-21T13:59:51.178Z,993.41
2018-05-21T14:01:01.206Z,993.54
2018-05-21T14:02:10.971Z,993.41
2018-05-21T14:03:20.734Z,993.49
2018-05-21T14:04:30.499Z,993.45
2018-05-21T14:05:40.544Z,993.47
2018-05-21T14:06:50.594Z,993.48
2018-05-21T14:08:00.364Z,993.41
2018-05-21T14:09:10.390Z,993.52
2018-05-21T14:10:19.882Z,993.31
2018-05-21T14:11:29.912Z,993.31
2018-05-21T14:12:40.136Z,993.16
2018-05-21T14:13:50.188Z,993.42
2018-05-21T14:14:59.945Z,993.42
2018-05-21T14:16:09.716Z,993.54
2018-05-21T14:17:19.610Z,993.52
2018-05-21T14:18:29.619Z,993.5
2018-05-21T14:19:39.119Z,993.38
2018-05-21T14:20:49.147Z,993.25
2018-05-21T14:21:58.903Z,993.32
2018-05-21T14:23:08.425Z,993.35
2018-05-21T14:24:18.260Z,993.44
2018-05-21T14:25:27.280Z,993.54
2018-05-21T14:26:37.102Z,993.24
2018-05-21T14:27:47.141Z,993.07
2018-05-21T14:28:56.895Z,993.13
2018-05-21T14:30:06.282Z,993.18
2018-05-21T14:31:16.037Z,993.02
2018-05-21T14:32:26.068Z,992.99
2018-05-21T14:33:36.092Z,993.13
2018-05-21T14:34:45.589Z,993.22
2018-05-21T14:35:55.350Z,993.31